Portada
METAR-TAF:

METAR-TAF

Aeropuertos :

Memmingen, Alemania

latitud: 47-59-33N, longitud: 10-14-37E, altitud: 633 m

Observación

El informe se hizo hace 44 minutos, a las 02:20 UTC
Viento 14 kt del suroeste
Temperatura 0°C
Humedad 86%
Presión 1009 hPa
Visibilidad 10 km o más

METAR: EDJA 270220Z AUTO 23014KT 9999 // SCT011/// OVC048/// M00/M02 Q1009

Hora: 04:04 (03:04 UTC)

Pronóstico

El informe se hizo hace 10 horas y 4 minutos, a las 17:00 UTC
Pronóstico válido del 26 a las 18 UTC al 27 a las 03 UTC
Viento 10 kt del oeste-suroeste
Visibilidad 10 km o más
Cielo nuboso a una altura de 3500 ft
Probabilidad 30% :
Temporalmente
del 26 a las 18 UTC al 27 a las 03 UTC
Viento 20 kt del suroeste con ráfagas de 30 kt
Visibilidad: 1500 m
Cielo nuboso a una altura de 800 ft, Cumulonimbus.
chaparrones de nieve

TAF: EDJA 261700Z 2618/2703 24010KT 9999 BKN035 PROB30 TEMPO 2618/2703 23020G30KT 1500 SHSN BKN008CB

Observaciones y pronósticos meteorológicos de más de 4000 aeropuertos (mensajes METAR y TAF).

Los puntos amarillos y rojos representan las estaciones disponibles.

Ponga el ratón en el punto deseado para ver el nombre de la estación.

Haga clic para ver las observaciones y los pronósticos meteorológicos.

Para cambiar el mapa : haga clic en los botones verdes con una cruz de color negro para hacer un zoom, en el botón verde con un guión para alejar o en las flechas verdes para mapas adyacentes.


METAR-TAF: